createdAt,value
2019-04-20T00:00:54.264Z,99429.48
2019-04-20T00:03:26.050Z,99424.80
2019-04-20T00:05:51.526Z,99421.47
2019-04-20T00:08:24.360Z,99423.20
2019-04-20T00:10:58.342Z,99420.00
2019-04-20T00:13:30.824Z,99418.52
2019-04-20T00:15:51.342Z,99416.58
2019-04-20T00:18:21.078Z,99411.41
2019-04-20T00:20:59.298Z,99407.03
2019-04-20T00:23:29.753Z,99407.16
2019-04-20T00:26:18.972Z,99407.78
2019-04-20T00:29:00.347Z,99412.75
2019-04-20T00:31:27.176Z,99408.34
2019-04-20T00:33:52.848Z,99405.64
2019-04-20T00:36:11.928Z,99405.83
2019-04-20T00:38:47.765Z,99404.62
2019-04-20T00:41:13.488Z,99399.02
2019-04-20T00:43:42.147Z,99402.97
2019-04-20T00:46:18.359Z,99399.21
2019-04-20T00:48:51.897Z,99405.23
2019-04-20T00:53:47.928Z,99398.83
2019-04-20T00:56:11.932Z,99389.88
2019-04-20T00:58:52.319Z,99392.91
2019-04-20T01:01:30.827Z,99389.86
2019-04-20T01:03:58.461Z,99389.88
2019-04-20T01:06:34.183Z,99393.80
2019-04-20T01:08:53.018Z,99383.07
2019-04-20T01:11:27.510Z,99383.38
2019-04-20T01:13:58.475Z,99384.29
2019-04-20T01:16:34.716Z,99384.71
2019-04-20T01:18:51.726Z,99380.74
2019-04-20T01:21:24.718Z,99382.45
2019-04-20T01:23:55.194Z,99379.59
2019-04-20T01:26:22.533Z,99379.66
2019-04-20T01:29:01.780Z,99382.53
2019-04-20T01:31:30.484Z,99384.84
2019-04-20T01:34:01.815Z,99383.83
2019-04-20T01:36:40.661Z,99380.90
2019-04-20T01:39:02.727Z,99383.84
2019-04-20T01:41:22.386Z,99379.64
2019-04-20T01:43:50.708Z,99381.81
2019-04-20T01:46:23.358Z,99382.95
2019-04-20T01:48:49.050Z,99374.80
2019-04-20T01:51:23.309Z,99380.09
2019-04-20T01:54:13.497Z,99383.27
2019-04-20T01:56:40.406Z,99382.69
2019-04-20T01:59:21.101Z,99382.71
2019-04-20T02:01:39.012Z,99385.58
2019-04-20T02:04:26.928Z,99384.36
2019-04-20T02:06:54.824Z,99381.92
2019-04-20T02:09:24.226Z,99383.83
2019-04-20T02:11:52.037Z,99389.70
2019-04-20T02:14:28.664Z,99387.99
2019-04-20T02:16:57.695Z,99385.30
2019-04-20T02:19:34.727Z,99380.97
2019-04-20T02:22:03.943Z,99378.73
2019-04-20T02:24:19.713Z,99385.56
2019-04-20T02:26:50.082Z,99378.73
2019-04-20T02:29:41.886Z,99381.45
2019-04-20T02:32:23.917Z,99383.20
2019-04-20T02:37:23.703Z,99386.01
2019-04-20T02:39:52.749Z,99386.20
2019-04-20T02:42:26.491Z,99291.53
2019-04-20T02:45:01.297Z,99387.98
2019-04-20T02:47:43.690Z,99386.27
2019-04-20T02:49:59.834Z,99377.99
2019-04-20T02:52:28.744Z,99380.06
2019-04-20T03:02:13.039Z,99375.73
2019-04-20T03:04:34.349Z,99378.67
2019-04-20T03:07:07.947Z,99378.84
2019-04-20T03:09:46.514Z,99378.02
2019-04-20T03:12:18.303Z,99379.17
2019-04-20T03:14:39.619Z,99378.55
2019-04-20T03:17:17.657Z,99380.16
2019-04-20T03:19:41.188Z,99374.97
2019-04-20T03:22:13.674Z,99378.89
2019-04-20T03:24:50.009Z,99379.03
2019-04-20T03:27:14.949Z,99379.17
2019-04-20T03:29:50.950Z,99381.06
2019-04-20T03:35:12.088Z,99381.97
2019-04-20T03:37:26.679Z,99377.39
2019-04-20T03:39:50.338Z,99374.73
2019-04-20T03:42:05.210Z,99377.02
2019-04-20T03:44:35.853Z,99369.51
2019-04-20T03:47:08.218Z,99376.55
2019-04-20T03:50:10.750Z,99374.77
2019-04-20T03:52:36.468Z,99369.50
2019-04-20T03:55:41.872Z,99374.33
2019-04-20T03:58:03.433Z,99368.95
2019-04-20T04:00:43.319Z,99367.38
2019-04-20T04:03:20.927Z,99364.28
2019-04-20T04:05:44.371Z,99367.24
2019-04-20T04:08:10.576Z,99364.11
2019-04-20T04:10:47.834Z,99364.11
2019-04-20T04:13:09.881Z,99372.02
2019-04-20T04:15:47.801Z,99369.07
2019-04-20T04:18:17.851Z,99369.67
2019-04-20T04:20:49.220Z,99371.10
2019-04-20T04:23:28.657Z,99372.37
2019-04-20T04:26:00.642Z,99371.33
2019-04-20T04:28:28.488Z,99370.16
2019-04-20T04:31:04.157Z,99372.00
2019-04-20T04:35:59.287Z,99370.96
2019-04-20T04:38:37.398Z,99382.75
2019-04-20T04:41:09.573Z,99389.92
2019-04-20T04:43:31.593Z,99389.35
2019-04-20T04:45:42.723Z,99389.84
2019-04-20T04:48:16.324Z,99394.91
2019-04-20T04:50:47.490Z,99396.17
2019-04-20T04:53:25.059Z,99393.48
2019-04-20T04:55:50.787Z,99401.25
2019-04-20T04:58:12.807Z,99397.31
2019-04-20T05:00:42.559Z,99400.98
2019-04-20T05:03:28.197Z,99401.45
2019-04-20T05:06:03.257Z,99400.91
2019-04-20T05:08:21.968Z,99407.50
2019-04-20T05:10:43.840Z,99401.34
2019-04-20T05:13:13.575Z,99405.05
2019-04-20T05:15:53.835Z,99402.84
2019-04-20T05:18:41.996Z,99401.30
2019-04-20T05:21:05.868Z,99408.27
2019-04-20T05:23:41.177Z,99407.91
2019-04-20T05:26:26.857Z,99402.36
2019-04-20T05:28:53.310Z,99401.77
2019-04-20T05:31:15.580Z,99401.22
2019-04-20T05:34:11.361Z,99405.33
2019-04-20T05:36:40.527Z,99404.78
2019-04-20T05:39:16.165Z,99402.41
2019-04-20T05:41:32.856Z,99407.81
2019-04-20T05:44:03.867Z,99408.52
2019-04-20T05:46:36.296Z,99403.10
2019-04-20T05:49:11.693Z,99404.17
2019-04-20T05:54:07.245Z,99411.77
2019-04-20T05:56:40.016Z,99411.89
2019-04-20T05:59:06.984Z,99416.86
2019-04-20T06:01:42.342Z,99416.70
2019-04-20T06:04:02.543Z,99414.71
2019-04-20T06:06:43.368Z,99419.95
2019-04-20T06:09:12.367Z,99418.16
2019-04-20T06:11:52.229Z,99416.52
2019-04-20T06:14:06.836Z,99414.23
2019-04-20T06:16:52.647Z,99417.70
2019-04-20T06:19:26.083Z,99417.89
2019-04-20T06:22:11.375Z,99424.58
2019-04-20T06:24:38.080Z,99428.36
2019-04-20T06:27:02.404Z,99428.56
2019-04-20T06:29:23.954Z,99434.81
2019-04-20T06:31:58.031Z,99439.79
2019-04-20T06:34:33.086Z,99437.26
2019-04-20T06:49:32.927Z,99427.55
2019-04-20T06:52:24.348Z,99437.31
2019-04-20T06:57:40.331Z,99431.82
2019-04-20T07:00:14.656Z,99437.03
2019-04-20T07:05:12.765Z,99438.72
2019-04-20T07:07:37.286Z,99436.70
2019-04-20T07:10:14.721Z,99439.30
2019-04-20T07:12:39.326Z,99436.63
2019-04-20T07:14:58.836Z,99439.11
2019-04-20T07:17:45.581Z,99434.02
2019-04-20T07:20:18.460Z,99434.47
2019-04-20T07:22:52.269Z,99431.57
2019-04-20T07:25:19.343Z,99437.55
2019-04-20T07:27:54.034Z,99439.23
2019-04-20T07:30:16.511Z,99436.92
2019-04-20T07:33:04.316Z,99434.94
2019-04-20T07:35:23.235Z,99437.24
2019-04-20T07:40:21.698Z,99434.72
2019-04-20T07:45:26.144Z,99432.81
2019-04-20T07:47:57.130Z,99437.52
2019-04-20T07:50:17.486Z,99434.39
2019-04-20T07:52:43.278Z,99428.82
2019-04-20T07:57:48.788Z,99431.31
2019-04-20T08:00:27.813Z,99425.52
2019-04-20T08:03:18.371Z,99429.55
2019-04-20T08:05:36.460Z,99425.64
2019-04-20T08:08:14.866Z,99419.66
2019-04-20T08:10:47.434Z,99418.89
2019-04-20T08:15:49.191Z,99426.17
2019-04-20T08:18:21.597Z,99427.98
2019-04-20T08:20:47.509Z,99427.83
2019-04-20T08:23:17.574Z,99417.52
2019-04-20T08:25:39.815Z,99422.50
2019-04-20T08:27:57.497Z,99423.06
2019-04-20T08:30:46.621Z,99417.19
2019-04-20T08:33:17.823Z,99413.22
2019-04-20T08:35:58.494Z,99415.78
2019-04-20T08:38:51.532Z,99415.42
2019-04-20T08:40:53.675Z,99416.19
2019-04-20T08:43:38.314Z,99408.55
2019-04-20T08:45:52.420Z,99406.13
2019-04-20T08:48:26.264Z,99410.73
2019-04-20T08:50:54.477Z,99404.94
2019-04-20T08:53:28.100Z,99403.10
2019-04-20T08:55:45.061Z,99403.75
2019-04-20T08:58:04.448Z,99401.92
2019-04-20T09:00:42.147Z,99394.23
2019-04-20T09:03:15.360Z,99393.16
2019-04-20T09:05:45.575Z,99388.00
2019-04-20T09:08:14.402Z,99378.41
2019-04-20T09:10:48.238Z,99386.59
2019-04-20T09:13:16.015Z,99381.74
2019-04-20T09:15:34.222Z,99382.12
2019-04-20T09:18:14.667Z,99374.45
2019-04-20T09:20:46.246Z,99378.00
2019-04-20T09:23:21.270Z,99371.50
2019-04-20T09:28:36.379Z,99376.05
2019-04-20T09:31:25.830Z,99379.62
2019-04-20T09:34:10.489Z,99379.56
2019-04-20T09:36:44.669Z,99380.42
2019-04-20T09:39:12.803Z,99369.64
2019-04-20T09:41:59.726Z,99370.97
2019-04-20T09:44:13.578Z,99358.66
2019-04-20T09:46:46.019Z,99370.47
2019-04-20T09:49:20.081Z,99363.77
2019-04-20T09:51:59.777Z,99354.44
2019-04-20T09:54:31.068Z,99349.91
2019-04-20T09:57:03.247Z,99349.41
2019-04-20T09:59:33.674Z,99349.44
2019-04-20T10:01:47.594Z,99348.24
2019-04-20T10:04:13.291Z,99343.98
2019-04-20T10:06:41.769Z,99342.42
2019-04-20T10:09:11.610Z,99332.33
2019-04-20T10:11:42.514Z,99339.02
2019-04-20T10:14:10.427Z,99340.65
2019-04-20T10:16:40.023Z,99332.77
2019-04-20T10:19:11.720Z,99333.94
2019-04-20T10:21:38.922Z,99327.57
2019-04-20T10:24:08.578Z,99330.86
2019-04-20T10:26:38.705Z,99329.27
2019-04-20T10:29:07.894Z,99324.28
2019-04-20T10:31:42.662Z,99315.23
2019-04-20T10:34:07.413Z,99308.44
2019-04-20T10:36:37.768Z,99314.16
2019-04-20T10:39:08.807Z,99311.86
2019-04-20T10:41:45.155Z,99313.30
2019-04-20T10:44:07.321Z,99311.59
2019-04-20T10:46:36.246Z,99304.92
2019-04-20T10:49:06.038Z,99303.41
2019-04-20T10:51:35.631Z,99302.73
2019-04-20T10:54:04.565Z,99293.53
2019-04-20T10:56:33.742Z,99294.80
2019-04-20T10:59:03.447Z,99298.42
2019-04-20T11:01:31.902Z,99299.87
2019-04-20T11:04:00.813Z,99291.27
2019-04-20T11:06:29.195Z,99290.59
2019-04-20T11:08:58.547Z,99292.34
2019-04-20T11:11:30.040Z,99287.72
2019-04-20T11:13:59.891Z,99288.50
2019-04-20T11:16:28.516Z,99293.41
2019-04-20T11:18:57.762Z,99290.57
2019-04-20T11:21:26.413Z,99284.90
2019-04-20T11:23:54.734Z,99284.58
2019-04-20T11:26:24.388Z,99280.41
2019-04-20T11:28:53.034Z,99271.47
2019-04-20T11:31:22.045Z,99265.42
2019-04-20T11:33:50.428Z,99267.96
2019-04-20T11:36:19.174Z,99264.57
2019-04-20T11:38:48.978Z,99260.56
2019-04-20T11:41:23.732Z,99264.50
2019-04-20T11:43:47.763Z,99261.55
2019-04-20T11:46:16.604Z,99261.20
2019-04-20T11:48:45.440Z,99261.84
2019-04-20T11:51:14.275Z,99265.70
2019-04-20T11:53:42.835Z,99257.33
2019-04-20T11:56:14.589Z,99251.58
2019-04-20T11:58:41.306Z,99255.05
2019-04-20T12:01:18.288Z,99246.04
2019-04-20T12:03:52.958Z,99248.03
2019-04-20T12:06:14.961Z,99242.44
2019-04-20T12:08:44.335Z,99243.03
2019-04-20T12:11:27.820Z,99235.92
2019-04-20T12:13:44.876Z,99241.04
2019-04-20T12:16:13.921Z,99225.32
2019-04-20T12:18:42.549Z,99220.42
2019-04-20T12:21:12.636Z,99219.78
2019-04-20T12:23:42.344Z,99225.63
2019-04-20T12:26:11.047Z,99224.93
2019-04-20T12:28:40.113Z,99228.94
2019-04-20T12:31:11.921Z,99217.91
2019-04-20T12:33:40.044Z,99209.39
2019-04-20T12:36:10.313Z,99210.98
2019-04-20T12:38:39.143Z,99205.25
2019-04-20T12:41:09.579Z,99208.77
2019-04-20T12:43:38.083Z,99203.19
2019-04-20T12:46:07.669Z,99207.66
2019-04-20T12:48:37.629Z,99203.27
2019-04-20T12:51:06.103Z,99204.79
2019-04-20T12:53:34.909Z,99203.57
2019-04-20T12:56:04.388Z,99188.26
2019-04-20T12:58:34.421Z,99195.97
2019-04-20T13:01:03.029Z,99193.55
2019-04-20T13:03:31.766Z,99190.00
2019-04-20T13:06:01.823Z,99180.46
2019-04-20T13:08:36.864Z,99181.56
2019-04-20T13:11:02.598Z,99181.53
2019-04-20T13:13:41.688Z,99173.16
2019-04-20T13:16:12.347Z,99176.41
2019-04-20T13:18:43.381Z,99166.41
2019-04-20T13:21:13.184Z,99165.54
2019-04-20T13:23:42.734Z,99163.94
2019-04-20T13:26:12.671Z,99162.42
2019-04-20T13:28:41.308Z,99162.58
2019-04-20T13:31:09.939Z,99152.66
2019-04-20T13:33:39.084Z,99150.64
2019-04-20T13:36:08.139Z,99143.96
2019-04-20T13:38:36.752Z,99139.34
2019-04-20T13:41:06.208Z,99140.46
2019-04-20T13:43:35.523Z,99138.81
2019-04-20T13:46:04.954Z,99136.88
2019-04-20T13:48:33.362Z,99132.47
2019-04-20T13:51:02.335Z,99130.95
2019-04-20T13:53:30.717Z,99129.55
2019-04-20T13:55:59.295Z,99120.37
2019-04-20T13:58:44.045Z,99117.92
2019-04-20T14:01:17.097Z,99117.64
2019-04-20T14:03:47.179Z,99102.52
2019-04-20T14:06:16.578Z,99103.44
2019-04-20T14:08:45.461Z,99103.81
2019-04-20T14:11:13.773Z,99097.78
2019-04-20T14:13:50.039Z,99092.62
2019-04-20T14:16:14.257Z,99089.86
2019-04-20T14:18:42.929Z,99083.84
2019-04-20T14:21:12.222Z,99090.36
2019-04-20T14:23:41.146Z,99086.19
2019-04-20T14:26:09.733Z,99075.48
2019-04-20T14:28:38.781Z,99073.77
2019-04-20T14:31:07.830Z,99078.11
2019-04-20T14:33:36.987Z,99076.36
2019-04-20T14:36:05.532Z,99075.48
2019-04-20T14:38:34.136Z,99070.73
2019-04-20T14:41:02.467Z,99071.14
2019-04-20T14:43:33.000Z,99062.59
2019-04-20T14:46:00.949Z,99063.72
2019-04-20T14:48:29.320Z,99059.41
2019-04-20T14:50:57.635Z,99067.62
2019-04-20T14:53:27.363Z,99061.80
2019-04-20T14:55:57.601Z,99055.25
2019-04-20T14:58:41.646Z,99056.37
2019-04-20T15:01:12.316Z,99054.29
2019-04-20T15:03:42.165Z,99046.44
2019-04-20T15:06:11.794Z,99045.17
2019-04-20T15:08:40.800Z,99049.30
2019-04-20T15:11:09.421Z,99041.16
2019-04-20T15:13:38.613Z,99042.52
2019-04-20T15:16:07.047Z,99042.09
2019-04-20T15:18:37.763Z,99039.61
2019-04-20T15:21:13.826Z,99038.09
2019-04-20T15:23:43.617Z,99027.41
2019-04-20T15:26:12.819Z,99029.66
2019-04-20T15:28:42.177Z,99027.20
2019-04-20T15:31:12.163Z,99021.09
2019-04-20T15:33:41.074Z,98980.18
2019-04-20T15:36:10.575Z,99020.97
2019-04-20T15:38:38.885Z,99024.95
2019-04-20T15:41:10.185Z,99014.52
2019-04-20T15:43:37.632Z,99018.17
2019-04-20T15:46:07.481Z,99011.98
2019-04-20T15:48:37.748Z,99012.63
2019-04-20T15:51:07.927Z,99012.98
2019-04-20T15:53:37.712Z,99012.88
2019-04-20T15:56:08.586Z,99006.25
2019-04-20T15:58:36.533Z,99005.16
2019-04-20T16:01:08.258Z,99002.21
2019-04-20T16:03:47.729Z,99000.38
2019-04-20T16:06:17.068Z,98992.96
2019-04-20T16:08:48.214Z,98993.26
2019-04-20T16:11:17.298Z,98995.97
2019-04-20T16:13:50.085Z,98991.75
2019-04-20T16:16:16.314Z,98992.13
2019-04-20T16:18:45.219Z,98984.49
2019-04-20T16:21:20.863Z,98983.09
2019-04-20T16:23:46.803Z,98978.93
2019-04-20T16:26:17.766Z,98982.16
2019-04-20T16:28:47.809Z,98975.52
2019-04-20T16:31:16.655Z,98975.17
2019-04-20T16:33:46.357Z,98972.31
2019-04-20T16:36:16.446Z,98973.56
2019-04-20T16:38:45.615Z,98968.67
2019-04-20T16:41:14.658Z,98968.45
2019-04-20T16:43:45.036Z,98972.08
2019-04-20T16:46:13.177Z,98962.51
2019-04-20T16:48:42.140Z,98956.60
2019-04-20T16:51:10.980Z,98957.78
2019-04-20T16:53:39.932Z,98956.15
2019-04-20T16:56:08.592Z,98951.94
2019-04-20T16:58:37.906Z,98954.53
2019-04-20T17:01:07.673Z,98951.75
2019-04-20T17:03:44.486Z,98950.29
2019-04-20T17:06:06.895Z,98944.97
2019-04-20T17:08:36.558Z,98945.42
2019-04-20T17:11:05.622Z,98941.05
2019-04-20T17:13:40.531Z,98935.09
2019-04-20T17:16:04.243Z,98943.59
2019-04-20T17:18:33.913Z,98940.39
2019-04-20T17:21:07.248Z,98940.39
2019-04-20T17:23:33.247Z,98940.03
2019-04-20T17:26:03.958Z,98939.27
2019-04-20T17:28:52.458Z,98940.67
2019-04-20T17:31:22.046Z,98939.57
2019-04-20T17:34:01.378Z,98946.20
2019-04-20T17:36:26.039Z,98942.78
2019-04-20T17:38:54.970Z,98944.08
2019-04-20T17:41:44.613Z,98951.94
2019-04-20T17:44:09.953Z,98950.08
2019-04-20T17:46:35.765Z,98958.66
2019-04-20T17:49:09.674Z,98952.16
2019-04-20T17:51:48.975Z,98950.27
2019-04-20T17:54:06.658Z,98960.59
2019-04-20T17:56:34.098Z,98965.69
2019-04-20T17:59:03.988Z,98958.43
2019-04-20T18:02:05.345Z,98963.27
2019-04-20T18:04:54.903Z,98969.20
2019-04-20T18:07:10.624Z,98965.98
2019-04-20T18:09:47.515Z,98970.48
2019-04-20T18:11:59.658Z,98971.23
2019-04-20T18:14:42.859Z,98978.13
2019-04-20T18:17:15.399Z,98971.61
2019-04-20T18:19:42.929Z,98978.52
2019-04-20T18:22:13.960Z,98977.39
2019-04-20T18:25:10.416Z,98979.55
2019-04-20T18:27:31.773Z,98978.61
2019-04-20T18:30:01.343Z,98986.64
2019-04-20T18:32:29.587Z,98976.37
2019-04-20T18:35:03.530Z,98984.52
2019-04-20T18:37:30.989Z,98992.53
2019-04-20T18:40:06.009Z,98985.54
2019-04-20T18:42:34.927Z,98986.39
2019-04-20T18:45:16.050Z,98991.97
2019-04-20T18:47:49.560Z,98988.88
2019-04-20T18:50:10.784Z,98992.84
2019-04-20T18:52:31.667Z,98993.80
2019-04-20T18:55:01.521Z,98993.28
2019-04-20T18:57:32.707Z,98998.20
2019-04-20T19:00:00.917Z,98995.84
2019-04-20T19:02:35.633Z,98995.59
2019-04-20T19:05:03.399Z,99000.83
2019-04-20T19:07:34.887Z,99001.26
2019-04-20T19:10:12.907Z,98999.95
2019-04-20T19:12:39.574Z,98998.02
2019-04-20T19:15:43.839Z,98994.05
2019-04-20T19:18:09.785Z,99000.45
2019-04-20T19:20:33.060Z,99001.66
2019-04-20T19:23:02.161Z,98996.93
2019-04-20T19:25:34.882Z,98999.31
2019-04-20T19:28:02.898Z,99000.77
2019-04-20T19:30:37.655Z,98997.62
2019-04-20T19:33:18.717Z,98998.87
2019-04-20T19:35:41.958Z,98996.59
2019-04-20T19:38:10.298Z,99000.33
2019-04-20T19:40:45.690Z,98998.88
2019-04-20T19:43:14.235Z,99002.32
2019-04-20T19:45:57.898Z,98998.33
2019-04-20T19:48:17.435Z,98998.53
2019-04-20T19:50:57.736Z,99000.55
2019-04-20T19:53:26.032Z,98997.41
2019-04-20T19:55:48.003Z,98991.23
2019-04-20T19:58:19.273Z,98998.39
2019-04-20T20:00:52.167Z,98996.48
2019-04-20T20:03:21.628Z,98997.09
2019-04-20T20:05:52.338Z,98995.94
2019-04-20T20:08:24.359Z,98991.87
2019-04-20T20:10:50.687Z,98997.24
2019-04-20T20:13:20.391Z,98995.11
2019-04-20T20:15:52.883Z,98999.86
2019-04-20T20:18:36.365Z,98995.92
2019-04-20T20:21:04.798Z,98999.41
2019-04-20T20:23:20.316Z,99003.83
2019-04-20T20:25:50.083Z,99002.53
2019-04-20T20:28:32.295Z,98999.26
2019-04-20T20:31:01.733Z,99012.99
2019-04-20T20:33:36.415Z,99013.56
2019-04-20T20:35:58.299Z,99016.95
2019-04-20T20:38:28.100Z,99017.45
2019-04-20T20:40:58.896Z,99017.62
2019-04-20T20:43:34.415Z,99010.08
2019-04-20T20:46:01.365Z,99015.87
2019-04-20T20:48:36.998Z,99014.03
2019-04-20T20:51:12.486Z,99016.73
2019-04-20T20:53:36.251Z,99017.20
2019-04-20T20:56:04.954Z,99014.25
2019-04-20T20:58:33.693Z,99016.98
2019-04-20T21:00:59.701Z,99009.56
2019-04-20T21:03:29.205Z,99014.98
2019-04-20T21:05:51.473Z,99020.53
2019-04-20T21:08:19.789Z,99015.94
2019-04-20T21:10:49.683Z,99019.25
2019-04-20T21:13:19.220Z,99025.18
2019-04-20T21:15:53.850Z,99017.46
2019-04-20T21:18:39.374Z,99023.08
2019-04-20T21:21:04.547Z,99023.92
2019-04-20T21:23:32.643Z,99019.83
2019-04-20T21:26:12.728Z,99019.78
2019-04-20T21:28:42.114Z,99021.79
2019-04-20T21:31:16.278Z,99012.56
2019-04-20T21:33:41.165Z,99023.03
2019-04-20T21:36:14.120Z,99014.22
2019-04-20T21:38:42.435Z,99016.36
2019-04-20T21:41:15.024Z,99013.42
2019-04-20T21:43:42.882Z,99011.59
2019-04-20T21:46:12.059Z,99015.81
2019-04-20T21:48:55.918Z,99018.91
2019-04-20T21:51:25.544Z,99017.27
2019-04-20T21:53:41.153Z,99009.22
2019-04-20T21:56:10.614Z,99010.08
2019-04-20T21:58:43.534Z,99013.45
2019-04-20T22:01:18.683Z,99012.56
2019-04-20T22:03:40.438Z,99013.59
2019-04-20T22:06:10.644Z,99013.48
2019-04-20T22:08:44.438Z,99021.30
2019-04-20T22:11:09.114Z,99013.88
2019-04-20T22:13:40.253Z,99016.62
2019-04-20T22:16:11.079Z,99015.94
2019-04-20T22:18:48.366Z,99013.64
2019-04-20T22:21:18.369Z,99015.34
2019-04-20T22:23:57.091Z,99016.66
2019-04-20T22:26:18.598Z,99014.42
2019-04-20T22:28:38.304Z,99014.56
2019-04-20T22:31:06.697Z,99011.72
2019-04-20T22:33:39.960Z,99011.78
2019-04-20T22:36:09.510Z,99010.52
2019-04-20T22:38:58.139Z,99008.30
2019-04-20T22:41:27.414Z,99003.62
2019-04-20T22:43:54.804Z,99003.62
2019-04-20T22:46:28.749Z,99002.70
2019-04-20T22:49:15.430Z,99002.35
2019-04-20T22:51:41.331Z,99000.59
2019-04-20T22:54:10.938Z,99006.52
2019-04-20T22:56:39.707Z,98993.73
2019-04-20T22:59:02.103Z,99002.83
2019-04-20T23:01:34.840Z,98995.31
2019-04-20T23:03:54.897Z,98994.77
2019-04-20T23:06:25.348Z,98988.22
2019-04-20T23:08:59.556Z,98996.92
2019-04-20T23:11:28.590Z,98986.85
2019-04-20T23:13:53.724Z,98990.34
2019-04-20T23:16:22.968Z,98987.13
2019-04-20T23:18:51.968Z,98986.86
2019-04-20T23:21:21.687Z,98986.16
2019-04-20T23:23:55.951Z,98982.32
2019-04-20T23:26:28.062Z,98983.42
2019-04-20T23:28:55.012Z,98983.53
2019-04-20T23:31:24.878Z,98975.70
2019-04-20T23:33:51.925Z,98973.70
2019-04-20T23:36:30.376Z,98980.46
2019-04-20T23:38:54.588Z,98969.45
2019-04-20T23:41:21.820Z,98970.95
2019-04-20T23:43:54.910Z,98964.03
2019-04-20T23:46:30.202Z,98967.16
2019-04-20T23:49:22.111Z,98969.52
2019-04-20T23:52:03.626Z,98959.02
2019-04-20T23:54:23.007Z,98968.98
2019-04-20T23:56:45.842Z,98968.47
2019-04-20T23:59:14.813Z,98967.99
